Time;durP1;ratioP1;P1;durP2;ratioP2;P2;SDS_P1;SDS_P2;PMS_P1;PMS_P2;Temp;Humidity;BMP_temperature;BMP_pressure;BME280_temperature;BME280_humidity;BME280_pressure;Samples;Min_cycle;Max_cycle;Signal;HPM_P1;HPM_P2
2023/11/12 00:00:07;;;;;;;10.95;1.77;;;;;;;7.39;100.00;99293.13;5020929;28;20076;-43
2023/11/12 00:02:34;;;;;;;8.07;2.83;;;;;;;7.40;100.00;99289.19;5019443;28;20088;-45
2023/11/12 00:05:01;;;;;;;6.40;1.52;;;;;;;7.41;100.00;99288.88;5017334;28;20041;-46
2023/11/12 00:07:27;;;;;;;5.35;1.48;;;;;;;7.44;100.00;99288.13;5020471;28;20484;-43
2023/11/12 00:09:54;;;;;;;11.00;1.33;;;;;;;7.44;100.00;99287.34;5024394;28;20041;-43
2023/11/12 00:12:22;;;;;;;2.17;1.05;;;;;;;7.45;100.00;99299.94;5026108;28;20033;-44
2023/11/12 00:14:49;;;;;;;5.57;1.75;;;;;;;7.45;100.00;99277.91;5026253;28;20702;-46
2023/11/12 00:17:17;;;;;;;6.40;1.38;;;;;;;7.48;100.00;99283.50;5026578;28;20038;-44
2023/11/12 00:19:44;;;;;;;12.50;3.28;;;;;;;7.51;100.00;99282.78;5018434;28;20049;-44
2023/11/12 00:22:12;;;;;;;5.32;1.30;;;;;;;7.52;100.00;99278.09;5018926;28;20055;-48
2023/11/12 00:24:39;;;;;;;2.55;1.13;;;;;;;7.52;100.00;99287.13;5031429;28;20042;-43
2023/11/12 00:27:06;;;;;;;11.90;1.55;;;;;;;7.53;100.00;99285.97;5030969;28;20107;-44
2023/11/12 00:29:36;;;;;;;5.68;1.20;;;;;;;7.51;100.00;99282.78;5027046;28;20038;-45
2023/11/12 00:32:05;;;;;;;5.80;1.48;;;;;;;7.51;100.00;99282.78;5026715;28;20455;-46
2023/11/12 00:34:32;;;;;;;7.45;1.50;;;;;;;7.52;100.00;99284.38;5030544;28;20373;-44
2023/11/12 00:36:58;;;;;;;3.92;1.00;;;;;;;7.52;100.00;99273.34;5030589;28;20037;-47
2023/11/12 00:39:26;;;;;;;7.13;1.02;;;;;;;7.51;100.00;99274.53;5024967;28;20047;-45
2023/11/12 00:41:54;;;;;;;3.65;1.13;;;;;;;7.50;100.00;99281.19;5019974;28;20056;-47
2023/11/12 00:44:21;;;;;;;3.33;1.63;;;;;;;7.50;100.00;99281.19;5029411;28;20037;-43
2023/11/12 00:46:48;;;;;;;5.55;1.58;;;;;;;7.50;100.00;99280.38;5026261;28;20045;-43
2023/11/12 00:49:15;;;;;;;7.03;2.17;;;;;;;7.49;100.00;99276.84;5022474;28;20099;-47
2023/11/12 00:51:42;;;;;;;8.40;1.77;;;;;;;7.50;100.00;99269.38;5020933;28;20037;-44
2023/11/12 00:54:09;;;;;;;2.10;1.35;;;;;;;7.50;100.00;99270.16;5001600;28;20108;-44
2023/11/12 00:56:36;;;;;;;6.47;1.40;;;;;;;7.51;100.00;99269.03;5030318;28;20041;-43
2023/11/12 00:59:04;;;;;;;4.43;1.52;;;;;;;7.53;100.00;99266.69;5030600;28;20041;-43
2023/11/12 01:01:32;;;;;;;4.28;1.10;;;;;;;7.53;100.00;99269.44;5030213;28;20053;-46
2023/11/12 01:04:00;;;;;;;5.65;2.05;;;;;;;7.55;100.00;99266.31;5029786;28;20053;-44
2023/11/12 01:06:27;;;;;;;3.80;1.83;;;;;;;7.55;100.00;99263.56;5030801;28;20056;-44
2023/11/12 01:08:54;;;;;;;6.95;2.40;;;;;;;7.56;100.00;99262.41;5026269;28;20754;-42
2023/11/12 01:11:21;;;;;;;7.88;1.75;;;;;;;7.56;100.00;99259.66;5030482;28;20048;-43
2023/11/12 01:13:47;;;;;;;6.78;1.90;;;;;;;7.56;100.00;99246.69;5030001;28;20042;-44
2023/11/12 01:16:15;;;;;;;11.95;3.38;;;;;;;7.58;100.00;99249.88;5016673;28;20046;-44
2023/11/12 01:18:42;;;;;;;13.20;2.00;;;;;;;7.59;100.00;99245.19;5028710;28;20495;-43
2023/11/12 01:21:09;;;;;;;8.57;3.00;;;;;;;7.61;100.00;99245.59;5024731;28;20045;-43
2023/11/12 01:23:36;;;;;;;4.80;1.65;;;;;;;7.60;100.00;99242.06;5020948;28;20048;-43
2023/11/12 01:26:04;;;;;;;7.30;3.22;;;;;;;7.59;100.00;99234.97;5029743;28;20029;-47
2023/11/12 01:28:31;;;;;;;7.45;1.88;;;;;;;7.58;100.00;99238.88;5024831;28;20042;-41
2023/11/12 01:31:02;;;;;;;3.97;1.77;;;;;;;7.56;100.00;99235.69;5026809;28;20911;-45
2023/11/12 01:33:29;;;;;;;6.60;1.73;;;;;;;7.57;100.00;99237.25;5027478;28;20069;-48
2023/11/12 01:35:56;;;;;;;8.32;1.13;;;;;;;7.57;100.00;99226.25;5025469;28;20049;-44
2023/11/12 01:38:23;;;;;;;5.00;1.95;;;;;;;7.57;100.00;99220.72;5029283;28;20103;-43
2023/11/12 01:40:49;;;;;;;5.22;1.95;;;;;;;7.55;100.00;99206.53;5029395;28;20120;-44
2023/11/12 01:43:16;;;;;;;7.28;1.45;;;;;;;7.52;100.00;99207.25;5017847;28;20064;-45
2023/11/12 01:45:44;;;;;;;4.30;1.77;;;;;;;7.51;100.00;99213.94;5027253;28;20041;-44
2023/11/12 01:48:14;;;;;;;3.47;1.30;;;;;;;7.51;100.00;99205.69;5028814;28;20045;-46
2023/11/12 01:50:44;;;;;;;2.50;1.60;;;;;;;7.51;100.00;99213.94;5026973;28;20045;-46
2023/11/12 01:53:13;;;;;;;13.48;2.35;;;;;;;7.53;100.00;99203.34;5029581;28;20073;-44
2023/11/12 01:55:41;;;;;;;10.18;1.55;;;;;;;7.56;100.00;99201.84;5018763;28;20500;-42
2023/11/12 01:58:09;;;;;;;6.63;1.38;;;;;;;7.56;100.00;99199.88;5022448;28;20372;-46
2023/11/12 02:00:39;;;;;;;6.22;0.85;;;;;;;7.59;100.00;99192.84;5014670;28;20160;-42
2023/11/12 02:03:09;;;;;;;7.80;1.73;;;;;;;7.61;100.00;99194.09;5027643;28;20136;-42
2023/11/12 02:05:36;;;;;;;4.18;1.10;;;;;;;7.63;100.00;99191.75;5029394;28;20056;-46
2023/11/12 02:08:05;;;;;;;8.50;2.10;;;;;;;7.65;100.00;99183.91;5010428;28;20073;-46
2023/11/12 02:10:35;;;;;;;2.83;0.90;;;;;;;7.68;100.00;99182.38;5011642;28;20128;-42
2023/11/12 02:13:04;;;;;;;4.90;1.30;;;;;;;7.72;100.00;99188.78;5028699;28;20069;-41
2023/11/12 02:15:31;;;;;;;8.82;1.73;;;;;;;7.73;100.00;99182.91;5029484;28;20632;-42
2023/11/12 02:17:58;;;;;;;9.40;3.30;;;;;;;7.71;100.00;99176.97;5027983;28;20061;-43
2023/11/12 02:20:26;;;;;;;6.32;0.90;;;;;;;7.73;100.00;99185.66;5029244;28;20042;-45
2023/11/12 02:22:54;;;;;;;8.10;1.40;;;;;;;7.74;100.00;99181.75;5029107;28;20527;-45
2023/11/12 02:25:21;;;;;;;9.93;1.30;;;;;;;7.75;100.00;99172.34;5028327;28;20073;-46
2023/11/12 02:27:48;;;;;;;9.40;2.80;;;;;;;7.77;100.00;99174.72;5028041;28;20049;-42
2023/11/12 02:30:16;;;;;;;6.82;1.58;;;;;;;7.77;100.00;99170.00;5011135;28;20049;-48
2023/11/12 02:32:43;;;;;;;5.80;1.33;;;;;;;7.76;100.00;99168.41;5023937;28;20793;-48
2023/11/12 02:35:10;;;;;;;9.00;1.40;;;;;;;7.76;100.00;99165.66;5024839;28;20099;-42
2023/11/12 02:37:37;;;;;;;5.47;1.48;;;;;;;7.76;100.00;99171.16;5028203;28;20034;-42
2023/11/12 02:40:04;;;;;;;5.90;1.38;;;;;;;7.77;100.00;99172.75;5027573;28;20045;-46
2023/11/12 02:42:32;;;;;;;8.68;1.30;;;;;;;7.77;100.00;99163.69;5028334;28;20156;-42
2023/11/12 02:44:59;;;;;;;10.05;1.30;;;;;;;7.77;100.00;99147.97;5008908;28;20551;-45
2023/11/12 02:47:27;;;;;;;5.35;1.60;;;;;;;7.79;100.00;99155.84;5027639;28;20050;-44
2023/11/12 02:50:20;;;;;;;5.82;2.55;;;;;;;7.78;100.00;99143.25;5028078;28;20063;-44
2023/11/12 02:52:47;;;;;;;10.68;1.42;;;;;;;7.80;100.00;99143.69;5009140;28;20084;-48
2023/11/12 02:55:16;;;;;;;4.63;1.67;;;;;;;7.80;100.00;99152.75;5025158;28;20041;-46
2023/11/12 02:57:45;;;;;;;5.93;1.30;;;;;;;7.81;100.00;99137.78;5023521;28;20053;-46
2023/11/12 03:02:52;;;;;;;13.13;1.98;;;;;;;7.82;100.00;99136.66;4895506;22;20057;-42
2023/11/12 03:05:19;;;;;;;8.45;1.30;;;;;;;7.82;100.00;99136.66;5068694;28;20085;-43
2023/11/12 03:07:45;;;;;;;10.52;1.50;;;;;;;7.82;100.00;99131.13;5068281;28;20040;-42
2023/11/12 03:10:12;;;;;;;7.97;2.75;;;;;;;7.82;100.00;99125.63;5062379;28;20443;-41
2023/11/12 03:12:41;;;;;;;12.15;2.00;;;;;;;7.81;100.00;99126.78;5069306;28;20525;-43
2023/11/12 03:15:09;;;;;;;8.30;2.15;;;;;;;7.82;100.00;99131.13;5068365;28;20454;-44
2023/11/12 03:17:37;;;;;;;6.70;1.50;;;;;;;7.82;100.00;99125.63;5069368;28;20044;-44
2023/11/12 03:20:07;;;;;;;7.53;2.20;;;;;;;7.83;100.00;99127.22;5068879;28;20135;-45
2023/11/12 03:22:36;;;;;;;12.30;1.88;;;;;;;7.81;100.00;99124.03;5068993;28;20505;-42
2023/11/12 03:25:08;;;;;;;5.95;1.98;;;;;;;7.82;100.00;99117.34;5068673;28;20068;-42
2023/11/12 03:27:35;;;;;;;;;;;;;;;7.82;100.00;99113.81;5068414;28;20044;-42
2023/11/12 03:30:02;;;;;;;5.82;1.52;;;;;;;7.82;100.00;99111.84;5068208;28;19928;-41
2023/11/12 03:32:29;;;;;;;9.10;1.33;;;;;;;7.81;100.00;99110.25;5066286;28;20036;-41
2023/11/12 03:34:57;;;;;;;8.35;1.48;;;;;;;7.82;100.00;99109.09;5058005;28;20044;-42
2023/11/12 03:37:24;;;;;;;5.15;1.00;;;;;;;7.84;100.00;99098.50;5068440;28;20398;-41
2023/11/12 03:39:51;;;;;;;4.85;1.42;;;;;;;7.84;100.00;99103.19;5069376;28;20045;-44
2023/11/12 03:42:18;;;;;;;5.82;1.65;;;;;;;7.85;100.00;99100.09;5065526;28;20124;-42
2023/11/12 03:44:51;;;;;;;9.15;2.38;;;;;;;7.83;100.00;99091.41;5058539;28;20128;-42
2023/11/12 03:47:18;;;;;;;3.78;1.35;;;;;;;7.83;100.00;99088.66;5066919;28;20429;-44
2023/11/12 03:49:45;;;;;;;5.45;3.10;;;;;;;7.85;100.00;99094.59;5058448;28;20055;-43
2023/11/12 03:52:12;;;;;;;6.50;1.50;;;;;;;7.85;100.00;99089.06;5066445;28;20043;-47
2023/11/12 03:54:39;;;;;;;9.77;2.30;;;;;;;7.86;100.00;99090.66;5061821;28;20036;-41
2023/11/12 03:57:06;;;;;;;11.27;1.90;;;;;;;7.88;100.00;99096.63;5060784;28;20036;-43
2023/11/12 03:59:35;;;;;;;9.75;1.85;;;;;;;7.91;100.00;99082.09;5066126;28;20110;-45
2023/11/12 04:02:04;;;;;;;7.88;2.33;;;;;;;7.94;100.00;99084.09;5063801;28;20437;-41
2023/11/12 04:04:31;;;;;;;9.00;1.40;;;;;;;7.97;100.00;99091.63;5067826;28;20128;-42
2023/11/12 04:06:58;;;;;;;7.90;1.83;;;;;;;7.98;100.00;99079.47;5067062;28;20076;-41
2023/11/12 04:09:25;;;;;;;14.43;1.67;;;;;;;8.00;100.00;99073.56;5062201;28;20455;-42
2023/11/12 04:11:52;;;;;;;12.40;2.05;;;;;;;8.03;100.00;99083.06;5061064;28;20448;-44
2023/11/12 04:14:18;;;;;;;14.43;2.17;;;;;;;8.04;100.00;99066.16;5067840;28;20040;-42
2023/11/12 04:16:45;;;;;;;6.30;1.50;;;;;;;8.06;100.00;99065.78;5060754;28;20038;-43
2023/11/12 04:19:12;;;;;;;5.65;1.85;;;;;;;8.08;100.00;99057.94;5058226;28;20040;-44
2023/11/12 04:21:39;;;;;;;11.00;1.52;;;;;;;8.09;100.00;99065.06;5060469;28;20140;-42
2023/11/12 04:24:07;;;;;;;8.32;2.03;;;;;;;8.10;100.00;99053.66;5064055;28;20494;-42
2023/11/12 04:26:35;;;;;;;8.68;1.75;;;;;;;8.13;100.00;99060.41;5064552;28;20053;-43
2023/11/12 04:29:06;;;;;;;10.10;3.30;;;;;;;8.12;100.00;99045.03;5066723;28;20075;-42
2023/11/12 04:31:35;;;;;;;6.97;1.63;;;;;;;8.14;100.00;99061.97;5066117;28;20040;-46
2023/11/12 04:34:02;;;;;;;9.73;1.75;;;;;;;8.13;100.00;99049.38;5064920;28;20036;-42
2023/11/12 04:36:29;;;;;;;6.05;1.70;;;;;;;8.13;100.00;99049.38;5065846;28;20037;-43
2023/11/12 04:38:59;;;;;;;13.30;3.50;;;;;;;8.13;100.00;99044.66;5061812;28;20043;-43
2023/11/12 04:41:27;;;;;;;9.15;2.17;;;;;;;8.12;100.00;99042.28;5065707;28;20433;-45
2023/11/12 04:43:54;;;;;;;13.93;2.47;;;;;;;8.14;100.00;99039.94;5065696;28;20551;-43
2023/11/12 04:46:21;;;;;;;17.73;3.03;;;;;;;8.13;100.00;99025.34;5066323;28;20406;-44
2023/11/12 04:48:48;;;;;;;6.35;2.10;;;;;;;8.14;100.00;99034.41;5058795;28;20049;-44
2023/11/12 04:51:17;;;;;;;17.13;2.35;;;;;;;8.16;100.00;99035.63;5066201;28;20452;-43
2023/11/12 04:53:44;;;;;;;4.53;1.55;;;;;;;8.17;100.00;99033.69;5066786;28;20040;-45
2023/11/12 04:56:11;;;;;;;8.45;1.60;;;;;;;8.17;100.00;99026.22;5056731;28;20140;-41
2023/11/12 04:58:39;;;;;;;11.07;1.52;;;;;;;8.20;100.00;99027.44;5050535;28;20044;-42
2023/11/12 05:01:06;;;;;;;5.72;3.05;;;;;;;8.20;100.00;99024.69;5057301;28;20385;-42
2023/11/12 05:03:33;;;;;;;8.88;2.30;;;;;;;8.20;100.00;99025.47;5049093;28;20040;-41
2023/11/12 05:06:01;;;;;;;7.35;1.67;;;;;;;8.21;100.00;99018.78;5046290;28;20032;-45
2023/11/12 05:08:28;;;;;;;12.65;2.08;;;;;;;8.22;100.00;98997.53;5069197;28;20040;-42
2023/11/12 05:10:55;;;;;;;8.35;1.50;;;;;;;8.25;100.00;99007.81;5070391;28;20037;-47
2023/11/12 05:13:22;;;;;;;8.43;2.33;;;;;;;8.23;100.00;99010.94;5070415;28;20048;-42
2023/11/12 05:15:48;;;;;;;7.03;2.40;;;;;;;8.26;100.00;99009.41;5069829;28;20063;-42
2023/11/12 05:18:15;;;;;;;6.82;2.08;;;;;;;8.26;100.00;98998.38;5069960;28;20473;-44
2023/11/12 05:20:42;;;;;;;6.40;2.10;;;;;;;8.27;100.00;98997.22;5070405;28;20520;-42
2023/11/12 05:23:10;;;;;;;7.47;2.20;;;;;;;8.26;100.00;98999.16;5069839;28;20041;-49
2023/11/12 05:25:37;;;;;;;4.88;1.73;;;;;;;8.27;100.00;99003.53;5050783;28;20449;-45
2023/11/12 05:28:05;;;;;;;6.45;2.15;;;;;;;8.29;100.00;98987.41;5070110;28;20036;-42
2023/11/12 05:30:33;;;;;;;9.90;2.38;;;;;;;8.31;100.00;98990.59;5069392;28;20116;-43
2023/11/12 05:33:00;;;;;;;7.65;2.05;;;;;;;8.32;100.00;98981.16;5064117;28;20047;-45
2023/11/12 05:35:27;;;;;;;6.80;2.20;;;;;;;8.34;100.00;98983.56;5063384;28;20037;-48
2023/11/12 05:37:54;;;;;;;7.35;2.33;;;;;;;8.36;100.00;98981.22;5069405;28;20040;-45
2023/11/12 05:40:21;;;;;;;8.15;2.65;;;;;;;8.36;100.00;98983.97;5069680;28;20048;-43
2023/11/12 05:42:48;;;;;;;12.27;2.40;;;;;;;8.37;100.00;98977.28;5069330;28;20039;-46
2023/11/12 05:45:15;;;;;;;14.55;3.17;;;;;;;8.37;100.00;98971.78;5068367;28;20048;-44
2023/11/12 05:47:42;;;;;;;9.10;1.73;;;;;;;8.36;100.00;98975.72;5069325;28;20040;-44
2023/11/12 05:50:09;;;;;;;22.05;2.97;;;;;;;8.34;100.00;98975.28;5068023;28;20037;-46
2023/11/12 05:52:37;;;;;;;8.70;2.20;;;;;;;8.33;100.00;98973.69;5069285;28;20043;-43
2023/11/12 05:55:05;;;;;;;7.78;1.73;;;;;;;8.32;100.00;98967.38;5068381;28;20044;-46
2023/11/12 05:57:31;;;;;;;11.63;1.92;;;;;;;8.32;100.00;98963.81;5068594;28;20485;-46
2023/11/12 05:59:58;;;;;;;7.82;2.53;;;;;;;8.31;100.00;98965.00;5068854;28;20123;-44
2023/11/12 06:02:25;;;;;;;10.40;2.67;;;;;;;8.29;100.00;98968.13;5067031;28;20057;-41
2023/11/12 06:04:52;;;;;;;13.02;4.05;;;;;;;8.28;100.00;98958.28;5068845;28;20394;-42
2023/11/12 06:07:19;;;;;;;9.32;3.08;;;;;;;8.28;100.00;98951.97;5068685;28;20502;-44
2023/11/12 06:09:46;;;;;;;10.93;3.08;;;;;;;8.27;100.00;98964.16;5069118;28;20094;-46
2023/11/12 06:12:13;;;;;;;12.45;2.25;;;;;;;8.24;100.00;98970.38;5067962;28;20047;-43
2023/11/12 06:14:40;;;;;;;9.60;1.90;;;;;;;8.22;100.00;98964.44;5068562;28;20063;-40
2023/11/12 06:17:07;;;;;;;9.18;1.52;;;;;;;8.20;100.00;98964.03;5067983;28;20123;-43
2023/11/12 06:19:33;;;;;;;6.07;1.75;;;;;;;8.18;100.00;98958.09;5066812;28;20452;-44
2023/11/12 06:22:01;;;;;;;7.45;2.38;;;;;;;8.16;100.00;98966.72;5068316;28;20040;-44
2023/11/12 06:24:28;;;;;;;4.78;1.48;;;;;;;8.14;100.00;98971.03;5068026;28;20390;-41
2023/11/12 06:26:55;;;;;;;4.68;1.63;;;;;;;8.11;100.00;98967.06;5068804;28;20060;-43
2023/11/12 06:29:23;;;;;;;5.68;1.80;;;;;;;8.09;100.00;98960.31;5034189;28;20464;-42
2023/11/12 06:31:51;;;;;;;8.18;2.17;;;;;;;8.07;100.00;98965.41;5067802;28;20490;-41
2023/11/12 06:34:18;;;;;;;12.25;2.47;;;;;;;8.05;100.00;98965.00;5067952;28;20040;-41
2023/11/12 06:36:45;;;;;;;7.28;1.67;;;;;;;8.03;100.00;98967.31;5068859;28;20040;-44
2023/11/12 06:39:16;;;;;;;13.73;2.17;;;;;;;7.99;100.00;98968.06;5050815;28;20048;-42
2023/11/12 06:41:43;;;;;;;9.13;2.05;;;;;;;7.97;100.00;98964.88;5068161;28;20048;-42
2023/11/12 06:44:11;;;;;;;7.70;2.00;;;;;;;7.95;100.00;98967.22;5068300;28;20093;-40
2023/11/12 06:46:45;;;;;;;9.35;1.85;;;;;;;7.92;100.00;98962.44;5067985;28;20050;-41
2023/11/12 06:49:13;;;;;;;4.97;1.50;;;;;;;7.91;100.00;98965.59;5055088;28;20556;-41
2023/11/12 06:51:42;;;;;;;8.85;1.98;;;;;;;7.89;100.00;98957.66;5055014;28;20049;-40
2023/11/12 06:54:09;;;;;;;7.38;2.35;;;;;;;7.87;100.00;98960.00;5067697;28;20503;-44
2023/11/12 06:56:35;;;;;;;9.50;2.13;;;;;;;7.87;100.00;98954.50;5067866;28;20086;-40
2023/11/12 06:59:02;;;;;;;14.00;2.72;;;;;;;7.86;100.00;98947.38;5068270;28;20098;-44
2023/11/12 07:01:29;;;;;;;8.65;3.42;;;;;;;7.86;100.00;98955.66;5066658;28;20041;-39
2023/11/12 07:03:57;;;;;;;13.50;2.90;;;;;;;7.84;100.00;98955.22;5067423;28;20051;-40
2023/11/12 07:06:23;;;;;;;9.65;2.03;;;;;;;7.84;100.00;98955.22;5067752;28;20036;-41
2023/11/12 07:08:50;;;;;;;9.45;2.42;;;;;;;7.82;100.00;98957.56;5067929;28;20783;-40
2023/11/12 07:11:17;;;;;;;8.68;2.42;;;;;;;7.81;100.00;98950.47;5067851;28;20032;-40
2023/11/12 07:13:44;;;;;;;6.47;1.90;;;;;;;7.79;100.00;98952.78;5068473;28;20410;-38
2023/11/12 07:16:17;;;;;;;10.93;2.22;;;;;;;7.78;100.00;98947.66;5067404;28;20036;-39
2023/11/12 07:18:44;;;;;;;8.65;2.28;;;;;;;7.76;100.00;98945.28;5066616;28;20036;-41
2023/11/12 07:21:31;;;;;;;10.60;1.92;;;;;;;7.73;100.00;98937.75;5065968;28;20064;-39
2023/11/12 07:23:59;;;;;;;11.55;2.22;;;;;;;7.72;100.00;98941.69;5067975;28;20086;-39
2023/11/12 07:26:27;;;;;;;4.63;2.20;;;;;;;7.71;100.00;98933.75;5067590;28;20048;-40
2023/11/12 07:28:54;;;;;;;16.45;3.28;;;;;;;7.70;100.00;98933.00;5048627;28;20055;-42
2023/11/12 07:31:23;;;;;;;7.47;2.72;;;;;;;7.70;100.00;98930.25;5055003;28;20141;-40
2023/11/12 07:33:51;;;;;;;17.45;3.25;;;;;;;7.72;100.00;98936.16;5066259;28;20045;-40
2023/11/12 07:36:18;;;;;;;14.45;2.60;;;;;;;7.72;100.00;98930.66;5049923;28;20375;-39
2023/11/12 07:38:45;;;;;;;14.05;5.30;;;;;;;7.72;100.00;98921.59;5049658;28;20774;-40
2023/11/12 07:41:12;;;;;;;13.20;3.45;;;;;;;7.71;100.00;98929.06;5067666;28;20171;-39
2023/11/12 07:43:38;;;;;;;13.80;3.72;;;;;;;7.71;100.00;98933.75;5049014;28;20437;-40
2023/11/12 07:46:05;;;;;;;18.23;4.22;;;;;;;7.70;100.00;98944.00;5067180;28;20155;-38
2023/11/12 07:48:33;;;;;;;17.10;2.65;;;;;;;7.69;100.00;98947.91;5066249;28;20127;-39
2023/11/12 07:51:00;;;;;;;14.02;2.55;;;;;;;7.68;100.00;98949.06;5066619;28;20066;-39
2023/11/12 07:53:27;;;;;;;15.00;2.83;;;;;;;7.68;100.00;98929.00;5066189;28;20052;-45
2023/11/12 07:55:53;;;;;;;11.10;2.17;;;;;;;7.67;100.00;98928.22;5066740;28;20135;-39
2023/11/12 07:58:20;;;;;;;9.73;2.38;;;;;;;7.66;100.00;98926.63;5066741;28;20075;-39
2023/11/12 08:00:47;;;;;;;6.07;1.80;;;;;;;7.64;100.00;98925.41;5066213;28;20041;-42
2023/11/12 08:03:14;;;;;;;8.95;2.75;;;;;;;7.64;100.00;98926.19;5066156;28;20082;-39
2023/11/12 08:05:41;;;;;;;11.18;2.20;;;;;;;7.64;100.00;98917.16;5066670;28;20048;-39
2023/11/12 08:08:08;;;;;;;15.88;2.38;;;;;;;7.63;100.00;98924.59;5065104;28;20064;-39
2023/11/12 08:10:37;;;;;;;14.45;2.42;;;;;;;7.64;100.00;98909.69;5055937;28;20817;-42
2023/11/12 08:13:04;;;;;;;14.32;4.38;;;;;;;7.65;100.00;98908.50;5067277;28;20041;-40
2023/11/12 08:15:31;;;;;;;18.20;5.78;;;;;;;7.66;100.00;98906.53;5064007;28;20066;-40
2023/11/12 08:17:58;;;;;;;17.95;5.93;;;;;;;7.67;100.00;98908.16;5066932;28;20483;-40
2023/11/12 08:20:24;;;;;;;11.05;4.70;;;;;;;7.65;100.00;98900.22;5067459;28;20044;-40
2023/11/12 08:22:51;;;;;;;10.60;3.60;;;;;;;7.66;100.00;98906.53;5066778;28;20477;-40
2023/11/12 08:25:18;;;;;;;7.30;3.33;;;;;;;7.66;100.00;98899.09;5067067;28;20436;-40
2023/11/12 08:27:45;;;;;;;13.48;4.00;;;;;;;7.67;100.00;98903.44;5067109;28;20847;-40
2023/11/12 08:30:11;;;;;;;12.20;3.70;;;;;;;7.69;100.00;98898.34;5060031;28;20513;-40
2023/11/12 08:32:38;;;;;;;16.23;3.00;;;;;;;7.70;100.00;98904.66;5066215;28;20633;-39
2023/11/12 08:35:06;;;;;;;5.53;1.92;;;;;;;7.71;100.00;98900.72;5061785;28;20406;-39
2023/11/12 08:37:33;;;;;;;9.35;2.30;;;;;;;7.71;100.00;98896.00;5065679;28;20420;-43
2023/11/12 08:40:02;;;;;;;7.90;2.10;;;;;;;7.72;100.00;98892.09;5066533;28;20663;-39
2023/11/12 08:42:29;;;;;;;9.90;1.83;;;;;;;7.75;100.00;98896.06;5068525;28;20466;-41
2023/11/12 08:44:56;;;;;;;7.43;2.03;;;;;;;7.74;100.00;98889.75;5062354;28;20187;-40
2023/11/12 08:47:23;;;;;;;8.20;1.40;;;;;;;7.75;100.00;98883.09;5070863;28;20547;-43
2023/11/12 08:49:54;;;;;;;5.78;2.03;;;;;;;7.73;100.00;98882.66;5070298;28;20499;-41
2023/11/12 08:52:21;;;;;;;8.77;1.42;;;;;;;7.75;100.00;98880.34;5036118;28;20041;-44
2023/11/12 08:54:50;;;;;;;12.35;1.80;;;;;;;7.75;100.00;98891.38;5063734;28;20041;-40
2023/11/12 08:57:18;;;;;;;6.68;1.33;;;;;;;7.75;100.00;98891.38;5064775;28;20437;-40
2023/11/12 08:59:46;;;;;;;16.83;1.80;;;;;;;7.76;100.00;98887.41;5068714;28;20037;-44
2023/11/12 09:02:13;;;;;;;10.60;1.42;;;;;;;7.77;100.00;98878.00;5069056;28;20051;-43
2023/11/12 09:04:39;;;;;;;5.63;1.08;;;;;;;7.78;100.00;98884.31;5061914;28;20534;-42
2023/11/12 09:07:07;;;;;;;3.58;1.40;;;;;;;7.79;100.00;98877.63;5070396;28;20628;-43
2023/11/12 09:09:34;;;;;;;7.07;1.13;;;;;;;7.80;100.00;98879.22;5066952;28;20501;-40
2023/11/12 09:12:00;;;;;;;5.50;1.13;;;;;;;7.81;100.00;98878.84;5065357;28;20512;-43
2023/11/12 09:14:27;;;;;;;10.27;1.52;;;;;;;7.84;100.00;98888.31;5064848;28;20048;-44
2023/11/12 09:16:54;;;;;;;8.10;1.38;;;;;;;7.86;100.00;98886.78;5068496;28;20032;-46
2023/11/12 09:19:22;;;;;;;5.90;1.30;;;;;;;7.88;100.00;98876.19;5068563;28;20568;-40
2023/11/12 09:21:49;;;;;;;8.07;1.45;;;;;;;7.90;100.00;98878.56;5059343;28;20082;-43
2023/11/12 09:24:15;;;;;;;6.75;0.95;;;;;;;7.90;100.00;98871.09;5067769;28;20486;-44
2023/11/12 09:26:42;;;;;;;8.52;1.35;;;;;;;7.91;100.00;98867.19;5069161;28;20036;-40
2023/11/12 09:29:09;;;;;;;8.27;0.95;;;;;;;7.91;100.00;98872.69;5067753;28;20044;-41
2023/11/12 09:31:36;;;;;;;7.03;1.80;;;;;;;7.93;100.00;98869.56;5046237;28;20036;-43
2023/11/12 09:34:03;;;;;;;5.55;1.20;;;;;;;7.93;100.00;98848.31;5067865;28;20112;-43
2023/11/12 09:36:29;;;;;;;8.98;1.38;;;;;;;7.96;100.00;98866.88;5067747;28;20538;-40
2023/11/12 09:38:56;;;;;;;12.02;3.67;;;;;;;7.97;100.00;98860.16;5048876;28;20040;-43
2023/11/12 09:41:23;;;;;;;13.85;3.58;;;;;;;7.99;100.00;98851.53;5065301;28;20041;-42
2023/11/12 09:43:54;;;;;;;62.13;34.85;;;;;;;8.03;100.00;98857.09;5067790;28;20490;-43
2023/11/12 09:46:22;;;;;;;7.70;3.17;;;;;;;8.06;100.00;98850.81;5067506;28;20470;-40
2023/11/12 09:48:52;;;;;;;9.05;2.60;;;;;;;8.09;100.00;98845.38;5066972;28;20675;-39
2023/11/12 09:51:20;;;;;;;14.30;2.20;;;;;;;8.12;100.00;98849.34;5067105;28;20082;-40
2023/11/12 09:53:50;;;;;;;10.68;1.73;;;;;;;8.15;100.00;98835.59;5063082;28;20132;-40
2023/11/12 09:56:22;;;;;;;9.32;1.58;;;;;;;8.18;100.00;98828.56;5057897;28;20127;-41
2023/11/12 09:58:50;;;;;;;14.45;1.52;;;;;;;8.25;100.00;98834.13;5068690;28;20486;-41
2023/11/12 10:01:19;;;;;;;7.75;1.65;;;;;;;8.31;100.00;98832.69;5066734;28;20762;-39
2023/11/12 10:03:48;;;;;;;16.92;3.67;;;;;;;8.37;100.00;98828.38;5062084;28;20040;-39
2023/11/12 10:06:20;;;;;;;7.57;1.85;;;;;;;8.40;100.00;98827.63;5066917;28;20490;-43
2023/11/12 10:08:49;;;;;;;13.88;2.85;;;;;;;8.44;100.00;98829.28;5056588;28;20409;-40
2023/11/12 10:11:28;;;;;;;6.57;1.33;;;;;;;8.46;100.00;98818.66;5066257;28;20584;-44
2023/11/12 10:13:56;;;;;;;14.93;2.38;;;;;;;8.48;100.00;98823.78;5065042;28;20040;-42
2023/11/12 10:16:30;;;;;;;23.02;3.22;;;;;;;8.49;100.00;98822.63;5062532;28;20037;-41
2023/11/12 10:19:13;;;;;;;7.65;2.38;;;;;;;8.51;100.00;98825.78;5065775;28;20044;-40
2023/11/12 10:21:58;;;;;;;9.70;2.10;;;;;;;8.53;100.00;98812.41;5064894;28;20041;-41
2023/11/12 10:24:30;;;;;;;8.80;1.80;;;;;;;8.53;100.00;98812.41;5067266;28;20051;-42
2023/11/12 10:27:02;;;;;;;5.68;1.55;;;;;;;8.53;100.00;98798.63;5067449;28;20044;-41
2023/11/12 10:29:29;;;;;;;14.13;2.00;;;;;;;8.53;100.00;98801.38;5064828;28;20052;-45
2023/11/12 10:31:57;;;;;;;8.82;1.70;;;;;;;8.54;100.00;98802.97;5066282;28;20543;-41
2023/11/12 10:34:26;;;;;;;9.02;1.58;;;;;;;8.53;100.00;98788.38;5062071;28;20040;-41
2023/11/12 10:37:09;;;;;;;13.45;2.58;;;;;;;8.55;100.00;98796.31;5066233;28;20036;-46
2023/11/12 10:39:40;;;;;;;10.68;2.55;;;;;;;8.57;100.00;98791.19;5054474;28;20048;-43
2023/11/12 10:42:26;;;;;;;8.05;1.55;;;;;;;8.60;100.00;98784.13;5066663;28;20036;-41
2023/11/12 10:44:55;;;;;;;6.00;1.85;;;;;;;8.62;100.00;98779.81;5065443;28;20067;-43
2023/11/12 10:47:27;;;;;;;15.48;3.28;;;;;;;8.67;100.00;98778.66;5065050;28;20094;-42
2023/11/12 10:49:55;;;;;;;10.85;2.85;;;;;;;8.70;100.00;98758.59;5066622;28;20409;-47
2023/11/12 10:52:22;;;;;;;13.23;2.30;;;;;;;8.75;100.00;98770.06;5065895;28;20053;-41
2023/11/12 10:54:53;;;;;;;8.18;1.98;;;;;;;8.80;100.00;98761.44;5066838;28;20076;-41
2023/11/12 10:57:23;;;;;;;9.10;2.50;;;;;;;8.83;100.00;98759.88;5066057;28;20032;-40
2023/11/12 10:59:51;;;;;;;12.60;2.78;;;;;;;8.88;100.00;98765.06;5064304;28;20126;-41
2023/11/12 11:02:21;;;;;;;10.23;2.63;;;;;;;8.91;100.00;98764.28;5066380;28;20406;-41
2023/11/12 11:04:48;;;;;;;9.77;2.42;;;;;;;8.93;100.00;98765.50;5066011;28;20494;-41
2023/11/12 11:07:16;;;;;;;9.05;3.50;;;;;;;8.99;100.00;98765.94;5058316;28;20132;-41
2023/11/12 11:09:43;;;;;;;14.13;3.20;;;;;;;9.02;100.00;98771.50;5065995;28;20158;-38
2023/11/12 11:12:11;;;;;;;10.52;2.40;;;;;;;9.06;100.00;98782.53;5065026;28;20033;-39
2023/11/12 11:14:38;;;;;;;11.10;2.85;;;;;;;9.08;100.00;98772.69;5065739;28;20123;-40
2023/11/12 11:17:05;;;;;;;10.48;4.32;;;;;;;9.14;100.00;98776.69;5065485;28;20543;-39
2023/11/12 11:19:48;;;;;;;17.85;4.85;;;;;;;9.23;100.00;98770.06;5066074;28;20055;-39
2023/11/12 11:22:32;;;;;;;11.18;5.95;;;;;;;9.32;100.00;98787.88;5060858;28;20040;-39
2023/11/12 11:25:19;;;;;;;14.30;5.38;;;;;;;9.40;100.00;98788.72;5054305;28;20041;-39
2023/11/12 11:27:46;;;;;;;11.73;4.70;;;;;;;9.46;100.00;98789.94;5061079;28;20127;-44
2023/11/12 11:30:17;;;;;;;11.82;5.00;;;;;;;9.51;100.00;98797.84;5064527;28;20147;-46
2023/11/12 11:32:59;;;;;;;10.07;4.60;;;;;;;9.54;100.00;98802.59;5064685;28;20056;-39
2023/11/12 11:35:27;;;;;;;9.65;2.70;;;;;;;9.55;100.00;98804.19;5064469;28;20056;-41
2023/11/12 11:38:06;;;;;;;5.85;2.03;;;;;;;9.58;100.00;98818.03;5056121;28;20549;-40